createdAt,value
2019-04-04T00:01:34.476Z,44.13
2019-04-04T00:08:14.200Z,42.50
2019-04-04T00:11:25.069Z,42.67
2019-04-04T00:14:29.851Z,42.73
2019-04-04T00:17:58.303Z,42.90
2019-04-04T00:21:05.986Z,42.07
2019-04-04T00:32:17.227Z,40.27
2019-04-04T00:43:43.515Z,40.53
2019-04-04T00:46:48.351Z,39.67
2019-04-04T00:54:22.039Z,39.67
2019-04-04T01:00:54.899Z,40.23
2019-04-04T01:04:03.719Z,41.10
2019-04-04T01:07:10.464Z,40.27
2019-04-04T01:10:18.802Z,40.80
2019-04-04T01:13:42.911Z,38.63
2019-04-04T01:16:50.778Z,41.03
2019-04-04T01:20:24.462Z,38.90
2019-04-04T01:23:48.293Z,38.93
2019-04-04T01:30:59.176Z,38.60
2019-04-04T01:34:07.230Z,36.87
2019-04-04T01:44:47.408Z,38.87
2019-04-04T01:55:08.939Z,40.90
2019-04-04T01:58:21.602Z,43.27
2019-04-04T02:01:36.745Z,42.70
2019-04-04T02:16:52.366Z,42.23
2019-04-04T02:24:04.458Z,42.37
2019-04-04T02:27:10.820Z,40.93
2019-04-04T02:34:13.250Z,42.13
2019-04-04T02:37:27.538Z,43.27
2019-04-04T02:40:42.350Z,43.57
2019-04-04T02:43:49.636Z,45.63
2019-04-04T02:46:56.230Z,44.77
2019-04-04T02:50:04.635Z,46.00
2019-04-04T03:01:10.667Z,43.53
2019-04-04T03:04:19.279Z,44.20
2019-04-04T03:15:14.848Z,46.17
2019-04-04T03:18:19.888Z,44.37
2019-04-04T03:22:14.666Z,45.57
2019-04-04T03:43:40.520Z,50.97
2019-04-04T03:46:48.134Z,49.40
2019-04-04T03:49:58.492Z,49.83
2019-04-04T03:53:26.255Z,50.50
2019-04-04T04:09:17.059Z,46.37
2019-04-04T04:12:23.731Z,47.40
2019-04-04T04:15:30.425Z,51.67
2019-04-04T04:18:41.527Z,50.77
2019-04-04T04:32:22.966Z,51.37
2019-04-04T04:35:28.467Z,52.73
2019-04-04T04:42:00.103Z,54.20
2019-04-04T04:45:05.845Z,54.50
2019-04-04T04:48:13.124Z,49.80
2019-04-04T04:51:17.860Z,51.93
2019-04-04T04:54:23.482Z,49.77
2019-04-04T04:57:30.238Z,51.53
2019-04-04T05:00:47.223Z,51.63
2019-04-04T05:03:54.222Z,52.77
2019-04-04T05:07:18.475Z,56.87
2019-04-04T05:10:23.306Z,54.83
2019-04-04T05:13:29.511Z,51.63
2019-04-04T05:16:37.614Z,55.63
2019-04-04T05:27:23.372Z,59.50
2019-04-04T05:30:30.104Z,60.03
2019-04-04T05:33:35.140Z,56.10
2019-04-04T05:40:37.941Z,55.13
2019-04-04T05:43:42.847Z,58.00
2019-04-04T05:46:59.148Z,61.00
2019-04-04T05:50:36.381Z,64.47
2019-04-04T06:01:34.924Z,62.27
2019-04-04T06:04:39.978Z,61.90
2019-04-04T06:08:42.482Z,56.17
2019-04-04T06:11:48.529Z,54.57
2019-04-04T06:14:52.494Z,54.27
2019-04-04T06:17:57.153Z,54.50
2019-04-04T06:21:03.719Z,55.00
2019-04-04T06:24:08.530Z,53.57
2019-04-04T06:27:19.428Z,53.50
2019-04-04T06:30:42.524Z,55.00
2019-04-04T06:33:37.259Z,48.67
2019-04-04T06:37:27.044Z,47.00
2019-04-04T06:40:32.213Z,47.07
2019-04-04T06:48:04.217Z,50.33
2019-04-04T06:51:09.524Z,48.47
2019-04-04T06:54:42.251Z,48.43
2019-04-04T06:57:49.799Z,50.87
2019-04-04T07:00:59.486Z,48.97
2019-04-04T07:04:11.004Z,50.83
2019-04-04T07:07:20.513Z,50.70
2019-04-04T07:10:57.143Z,48.57
2019-04-04T07:13:59.113Z,51.77
2019-04-04T07:17:12.544Z,51.27
2019-04-04T07:20:48.417Z,49.63
2019-04-04T07:24:05.373Z,50.60
2019-04-04T07:31:39.162Z,50.87
2019-04-04T07:34:45.797Z,49.73
2019-04-04T07:41:44.964Z,51.33
2019-04-04T07:54:47.392Z,50.10
2019-04-04T07:57:53.291Z,48.13
2019-04-04T08:00:58.437Z,48.63
2019-04-04T08:04:06.984Z,47.63
2019-04-04T08:10:44.719Z,49.03
2019-04-04T08:14:20.234Z,48.50
2019-04-04T08:18:01.980Z,45.30
2019-04-04T08:21:06.738Z,43.27
2019-04-04T08:27:42.410Z,40.10
2019-04-04T08:35:07.479Z,40.40
2019-04-04T08:38:13.885Z,41.17
2019-04-04T08:41:30.752Z,34.17
2019-04-04T08:45:14.364Z,36.67
2019-04-04T08:48:25.441Z,36.13
2019-04-04T08:52:16.086Z,36.90
2019-04-04T08:55:10.951Z,40.57
2019-04-04T08:58:24.338Z,42.70
2019-04-04T09:02:07.175Z,42.63
2019-04-04T09:05:12.801Z,41.43
2019-04-04T09:08:17.547Z,38.13
2019-04-04T09:11:22.966Z,38.07
2019-04-04T09:14:27.988Z,38.00
2019-04-04T09:17:32.599Z,38.37
2019-04-04T09:20:37.320Z,38.93
2019-04-04T09:23:42.333Z,41.23
2019-04-04T09:26:47.089Z,41.70
2019-04-04T09:29:52.197Z,42.57
2019-04-04T09:32:57.582Z,42.87
2019-04-04T09:36:13.745Z,42.70
2019-04-04T09:39:19.807Z,45.00
2019-04-04T09:42:27.983Z,45.83
2019-04-04T09:45:36.082Z,49.40
2019-04-04T09:48:45.474Z,45.03
2019-04-04T09:51:53.372Z,46.20
2019-04-04T09:54:59.178Z,47.50
2019-04-04T09:58:04.265Z,48.33
2019-04-04T10:01:25.531Z,46.33
2019-04-04T10:04:30.664Z,48.40
2019-04-04T10:15:02.992Z,49.10
2019-04-04T10:27:03.190Z,49.00
2019-04-04T10:30:10.098Z,47.27
2019-04-04T10:33:23.910Z,47.10
2019-04-04T10:36:54.395Z,45.10
2019-04-04T10:40:20.408Z,46.87
2019-04-04T10:43:25.358Z,46.07
2019-04-04T10:46:32.084Z,45.43
2019-04-04T11:01:51.594Z,46.77
2019-04-04T11:09:02.326Z,45.43
2019-04-04T11:17:00.605Z,44.47
2019-04-04T11:20:13.728Z,43.47
2019-04-04T11:31:22.054Z,42.37
2019-04-04T11:34:52.356Z,42.80
2019-04-04T11:41:40.821Z,42.60
2019-04-04T11:49:10.037Z,39.07
2019-04-04T11:53:06.893Z,36.67
2019-04-04T11:56:16.642Z,37.00
2019-04-04T12:07:20.683Z,35.50
2019-04-04T12:10:26.195Z,35.63
2019-04-04T12:13:41.335Z,33.57
2019-04-04T12:17:20.930Z,37.70
2019-04-04T12:20:43.638Z,33.23
2019-04-04T12:24:30.872Z,32.33
2019-04-04T12:27:49.183Z,31.33
2019-04-04T12:30:55.783Z,31.10
2019-04-04T12:34:34.014Z,29.67
2019-04-04T12:37:56.479Z,27.43
2019-04-04T12:48:50.862Z,27.10
2019-04-04T12:52:02.327Z,27.43
2019-04-04T12:55:44.453Z,28.30
2019-04-04T12:58:53.306Z,27.63
2019-04-04T13:02:15.255Z,29.10
2019-04-04T13:05:27.550Z,27.87
2019-04-04T13:09:08.906Z,27.43
2019-04-04T13:12:44.153Z,27.30
2019-04-04T13:16:04.064Z,27.97
2019-04-04T13:19:30.940Z,27.07
2019-04-04T13:22:43.222Z,27.73
2019-04-04T13:25:48.334Z,28.03
2019-04-04T13:40:23.592Z,29.57
2019-04-04T13:44:23.565Z,29.93
2019-04-04T13:48:00.093Z,29.57
2019-04-04T13:51:47.224Z,28.77
2019-04-04T13:55:01.350Z,28.33
2019-04-04T13:58:09.788Z,29.47
2019-04-04T14:05:58.323Z,28.63
2019-04-04T14:09:33.493Z,29.73
2019-04-04T14:12:44.493Z,29.43
2019-04-04T14:16:42.780Z,30.07
2019-04-04T14:20:04.162Z,30.43
2019-04-04T14:34:25.631Z,33.70
2019-04-04T14:37:33.594Z,27.40
2019-04-04T14:40:38.851Z,27.00
2019-04-04T14:44:05.791Z,29.07
2019-04-04T14:47:17.664Z,28.70
2019-04-04T14:54:05.046Z,29.47
2019-04-04T15:01:12.725Z,31.33
2019-04-04T15:04:22.312Z,30.83
2019-04-04T15:07:32.117Z,31.83
2019-04-04T15:10:39.868Z,30.67
2019-04-04T15:13:47.971Z,31.23
2019-04-04T15:16:53.600Z,31.03
2019-04-04T15:20:37.056Z,31.20
2019-04-04T15:23:41.800Z,32.07
2019-04-04T15:26:51.146Z,31.73
2019-04-04T15:30:15.222Z,32.53
2019-04-04T15:33:21.310Z,32.60
2019-04-04T15:36:47.358Z,31.33
2019-04-04T15:40:00.123Z,31.60
2019-04-04T15:44:05.243Z,31.33
2019-04-04T15:50:25.251Z,30.07
2019-04-04T15:54:26.755Z,31.30
2019-04-04T15:58:19.955Z,32.03
2019-04-04T16:01:54.039Z,30.47
2019-04-04T16:05:10.753Z,31.57
2019-04-04T16:15:20.859Z,32.37
2019-04-04T16:18:25.159Z,32.73
2019-04-04T16:21:29.476Z,34.00
2019-04-04T16:24:33.780Z,32.77
2019-04-04T16:27:38.139Z,33.63
2019-04-04T16:30:42.448Z,33.03
2019-04-04T16:33:46.768Z,33.30
2019-04-04T16:36:51.199Z,31.93
2019-04-04T16:40:07.929Z,33.60
2019-04-04T16:43:01.612Z,34.67
2019-04-04T16:46:06.018Z,33.27
2019-04-04T16:49:10.350Z,33.33
2019-04-04T16:52:14.672Z,32.27
2019-04-04T16:55:18.968Z,34.13
2019-04-04T16:58:23.303Z,33.33
2019-04-04T17:01:27.607Z,33.27
2019-04-04T17:04:31.932Z,34.33
2019-04-04T17:07:36.344Z,35.07
2019-04-04T17:10:40.663Z,34.53
2019-04-04T17:13:45.012Z,34.90
2019-04-04T17:16:49.335Z,33.97
2019-04-04T17:19:53.640Z,35.47
2019-04-04T17:22:57.957Z,34.90
2019-04-04T17:26:02.578Z,34.20
2019-04-04T17:29:06.926Z,33.47
2019-04-04T17:32:11.228Z,34.53
2019-04-04T17:35:15.655Z,33.33
2019-04-04T17:38:20.357Z,32.63
2019-04-04T17:41:24.705Z,33.57
2019-04-04T17:44:29.531Z,33.60
2019-04-04T17:47:34.030Z,35.20
2019-04-04T17:50:38.351Z,33.80
2019-04-04T17:53:42.706Z,33.40
2019-04-04T17:56:47.022Z,34.20
2019-04-04T17:59:51.345Z,32.77
2019-04-04T18:02:55.658Z,32.93
2019-04-04T18:05:59.963Z,36.23
2019-04-04T18:09:05.924Z,33.83
2019-04-04T18:12:10.267Z,34.50
2019-04-04T18:15:14.896Z,33.93
2019-04-04T18:18:19.299Z,33.53
2019-04-04T18:21:23.635Z,34.10
2019-04-04T18:24:27.980Z,33.23
2019-04-04T18:27:32.419Z,33.57
2019-04-04T18:30:36.791Z,34.53
2019-04-04T18:33:41.243Z,34.20
2019-04-04T18:36:45.646Z,35.57
2019-04-04T18:39:50.100Z,33.27
2019-04-04T18:42:54.539Z,32.40
2019-04-04T18:45:59.016Z,34.23
2019-04-04T18:49:03.439Z,35.37
2019-04-04T18:52:07.951Z,34.30
2019-04-04T18:55:19.478Z,34.37
2019-04-04T18:58:18.477Z,36.43
2019-04-04T19:01:22.946Z,37.10
2019-04-04T19:04:27.361Z,36.40
2019-04-04T19:07:39.237Z,37.13
2019-04-04T19:10:38.089Z,36.83
2019-04-04T19:13:44.456Z,37.60
2019-04-04T19:16:49.234Z,38.40
2019-04-04T19:19:53.751Z,39.93
2019-04-04T19:22:58.191Z,38.93
2019-04-04T19:26:02.700Z,37.50
2019-04-04T19:29:07.253Z,36.60
2019-04-04T19:32:11.615Z,36.47
2019-04-04T19:35:16.308Z,36.70
2019-04-04T19:38:20.771Z,37.03
2019-04-04T19:41:25.229Z,38.30
2019-04-04T19:44:29.743Z,37.03
2019-04-04T19:47:34.163Z,36.37
2019-04-04T19:50:39.281Z,35.87
2019-04-04T19:53:43.848Z,38.20
2019-04-04T19:56:48.264Z,37.13
2019-04-04T19:59:52.650Z,38.60
2019-04-04T20:02:57.092Z,38.00
2019-04-04T20:06:01.513Z,36.27
2019-04-04T20:09:07.938Z,36.67
2019-04-04T20:12:12.305Z,37.83
2019-04-04T20:15:16.719Z,35.93
2019-04-04T20:18:21.119Z,36.20
2019-04-04T20:21:25.521Z,36.00
2019-04-04T20:24:30.349Z,52.30
2019-04-04T20:27:34.753Z,42.47
2019-04-04T20:30:39.770Z,36.67
2019-04-04T20:33:44.091Z,37.67
2019-04-04T20:36:48.402Z,38.67
2019-04-04T20:39:52.772Z,40.87
2019-04-04T20:42:57.434Z,42.67
2019-04-04T20:46:01.812Z,43.60
2019-04-04T20:49:06.141Z,41.87
2019-04-04T20:52:10.515Z,41.47
2019-04-04T20:55:14.848Z,40.53
2019-04-04T20:58:19.265Z,40.13
2019-04-04T21:01:24.442Z,40.77
2019-04-04T21:04:29.508Z,44.67
2019-04-04T21:07:34.464Z,46.03
2019-04-04T21:10:40.150Z,45.50
2019-04-04T21:13:55.432Z,42.90
2019-04-04T21:16:50.866Z,44.00
2019-04-04T21:19:55.212Z,43.70
2019-04-04T21:22:59.506Z,41.57
2019-04-04T21:26:03.810Z,40.53
2019-04-04T21:29:08.116Z,37.57
2019-04-04T21:32:12.408Z,39.57
2019-04-04T21:35:16.696Z,38.00
2019-04-04T21:38:20.994Z,35.13
2019-04-04T21:41:25.319Z,35.23
2019-04-04T21:44:29.663Z,36.27
2019-04-04T21:47:33.949Z,35.33
2019-04-04T21:50:38.515Z,34.30
2019-04-04T21:53:42.862Z,35.07
2019-04-04T21:56:47.177Z,34.80
2019-04-04T21:59:51.455Z,33.20
2019-04-04T22:02:55.893Z,33.73
2019-04-04T22:06:00.210Z,32.90
2019-04-04T22:09:07.993Z,33.20
2019-04-04T22:12:12.319Z,33.53
2019-04-04T22:15:16.644Z,33.27
2019-04-04T22:18:51.146Z,32.83
2019-04-04T22:22:33.800Z,32.80
2019-04-04T22:25:38.670Z,31.50
2019-04-04T22:28:49.494Z,34.00
2019-04-04T22:36:13.511Z,33.50
2019-04-04T22:47:54.853Z,32.27
2019-04-04T22:51:18.565Z,33.03
2019-04-04T22:54:43.638Z,33.67
2019-04-04T22:57:48.501Z,31.93
2019-04-04T23:00:57.693Z,33.43
2019-04-04T23:04:02.653Z,33.87
2019-04-04T23:07:07.774Z,33.93
2019-04-04T23:10:13.341Z,34.23
2019-04-04T23:13:18.061Z,34.53
2019-04-04T23:16:23.006Z,34.17
2019-04-04T23:19:27.889Z,33.03
2019-04-04T23:22:37.218Z,31.93
2019-04-04T23:25:45.227Z,32.10
2019-04-04T23:28:55.028Z,33.03
2019-04-04T23:32:31.556Z,33.47
2019-04-04T23:44:16.228Z,31.77
2019-04-04T23:47:46.410Z,31.07
2019-04-04T23:51:36.711Z,31.57
